sensor_id;sensor_type;location;lat;lon;timestamp;P1;durP1;ratioP1;P2;durP2;ratioP2
11817;SDS011;5966;52.402;5.322;2023-04-24T00:00:52;3.10;;;2.60;;
11817;SDS011;5966;52.402;5.322;2023-04-24T00:03:22;2.27;;;2.03;;
11817;SDS011;5966;52.402;5.322;2023-04-24T00:05:51;2.50;;;2.20;;
11817;SDS011;5966;52.402;5.322;2023-04-24T00:08:19;3.90;;;2.40;;
11817;SDS011;5966;52.402;5.322;2023-04-24T00:10:48;2.30;;;2.20;;
11817;SDS011;5966;52.402;5.322;2023-04-24T00:13:18;2.40;;;2.20;;
11817;SDS011;5966;52.402;5.322;2023-04-24T00:15:46;2.50;;;2.40;;
11817;SDS011;5966;52.402;5.322;2023-04-24T00:18:15;2.83;;;2.63;;
11817;SDS011;5966;52.402;5.322;2023-04-24T00:20:43;3.20;;;3.00;;
11817;SDS011;5966;52.402;5.322;2023-04-24T00:23:12;2.77;;;2.57;;
11817;SDS011;5966;52.402;5.322;2023-04-24T00:25:40;3.23;;;2.93;;
11817;SDS011;5966;52.402;5.322;2023-04-24T00:28:08;3.50;;;3.20;;
11817;SDS011;5966;52.402;5.322;2023-04-24T00:30:36;3.93;;;3.53;;
11817;SDS011;5966;52.402;5.322;2023-04-24T00:33:04;5.60;;;3.40;;
11817;SDS011;5966;52.402;5.322;2023-04-24T00:35:33;3.67;;;3.37;;
11817;SDS011;5966;52.402;5.322;2023-04-24T00:38:01;3.80;;;3.50;;
11817;SDS011;5966;52.402;5.322;2023-04-24T00:40:29;3.80;;;3.50;;
11817;SDS011;5966;52.402;5.322;2023-04-24T00:42:57;3.97;;;3.67;;
11817;SDS011;5966;52.402;5.322;2023-04-24T00:45:25;4.07;;;3.77;;
11817;SDS011;5966;52.402;5.322;2023-04-24T00:47:53;3.40;;;3.20;;
11817;SDS011;5966;52.402;5.322;2023-04-24T00:50:21;4.97;;;4.13;;
11817;SDS011;5966;52.402;5.322;2023-04-24T00:52:52;4.50;;;4.07;;
11817;SDS011;5966;52.402;5.322;2023-04-24T00:55:21;4.50;;;4.20;;
11817;SDS011;5966;52.402;5.322;2023-04-24T00:57:49;5.03;;;4.30;;
11817;SDS011;5966;52.402;5.322;2023-04-24T01:00:17;5.00;;;4.60;;
11817;SDS011;5966;52.402;5.322;2023-04-24T01:02:46;5.80;;;5.30;;
11817;SDS011;5966;52.402;5.322;2023-04-24T01:05:15;5.30;;;4.90;;
11817;SDS011;5966;52.402;5.322;2023-04-24T01:07:43;5.33;;;4.93;;
11817;SDS011;5966;52.402;5.322;2023-04-24T01:10:16;4.13;;;3.83;;
11817;SDS011;5966;52.402;5.322;2023-04-24T01:12:46;2.20;;;2.00;;
11817;SDS011;5966;52.402;5.322;2023-04-24T01:15:14;1.10;;;1.00;;
11817;SDS011;5966;52.402;5.322;2023-04-24T01:17:42;0.70;;;0.70;;
11817;SDS011;5966;52.402;5.322;2023-04-24T01:20:11;0.63;;;0.53;;
11817;SDS011;5966;52.402;5.322;2023-04-24T01:22:41;0.77;;;0.50;;
11817;SDS011;5966;52.402;5.322;2023-04-24T01:25:09;0.63;;;0.23;;
11817;SDS011;5966;52.402;5.322;2023-04-24T01:27:37;0.50;;;0.20;;
11817;SDS011;5966;52.402;5.322;2023-04-24T01:30:06;2.03;;;0.47;;
11817;SDS011;5966;52.402;5.322;2023-04-24T01:32:35;1.17;;;0.20;;
11817;SDS011;5966;52.402;5.322;2023-04-24T01:35:04;0.30;;;0.30;;
11817;SDS011;5966;52.402;5.322;2023-04-24T01:37:34;0.20;;;0.20;;
11817;SDS011;5966;52.402;5.322;2023-04-24T01:40:05;1.47;;;0.50;;
11817;SDS011;5966;52.402;5.322;2023-04-24T01:42:34;1.70;;;0.33;;
11817;SDS011;5966;52.402;5.322;2023-04-24T01:45:04;0.60;;;0.60;;
11817;SDS011;5966;52.402;5.322;2023-04-24T01:47:32;1.53;;;1.20;;
11817;SDS011;5966;52.402;5.322;2023-04-24T01:50:01;1.73;;;0.90;;
11817;SDS011;5966;52.402;5.322;2023-04-24T01:52:29;1.50;;;1.30;;
11817;SDS011;5966;52.402;5.322;2023-04-24T01:54:59;1.40;;;1.30;;
11817;SDS011;5966;52.402;5.322;2023-04-24T01:57:28;0.87;;;0.87;;
11817;SDS011;5966;52.402;5.322;2023-04-24T01:59:57;0.80;;;0.67;;
11817;SDS011;5966;52.402;5.322;2023-04-24T02:02:25;0.80;;;0.60;;
11817;SDS011;5966;52.402;5.322;2023-04-24T02:04:55;0.67;;;0.57;;
11817;SDS011;5966;52.402;5.322;2023-04-24T02:07:23;0.50;;;0.50;;
11817;SDS011;5966;52.402;5.322;2023-04-24T02:09:51;2.27;;;0.50;;
11817;SDS011;5966;52.402;5.322;2023-04-24T02:12:19;0.30;;;0.30;;
11817;SDS011;5966;52.402;5.322;2023-04-24T02:14:48;0.40;;;0.40;;
11817;SDS011;5966;52.402;5.322;2023-04-24T02:17:16;0.40;;;0.40;;
11817;SDS011;5966;52.402;5.322;2023-04-24T02:19:45;0.50;;;0.50;;
11817;SDS011;5966;52.402;5.322;2023-04-24T02:22:13;0.50;;;0.50;;
11817;SDS011;5966;52.402;5.322;2023-04-24T02:24:41;0.73;;;0.40;;
11817;SDS011;5966;52.402;5.322;2023-04-24T02:27:09;0.67;;;0.27;;
11817;SDS011;5966;52.402;5.322;2023-04-24T02:29:37;0.83;;;0.10;;
11817;SDS011;5966;52.402;5.322;2023-04-24T02:32:07;0.40;;;0.40;;
11817;SDS011;5966;52.402;5.322;2023-04-24T02:34:38;0.77;;;0.20;;
11817;SDS011;5966;52.402;5.322;2023-04-24T02:37:06;1.33;;;0.37;;
11817;SDS011;5966;52.402;5.322;2023-04-24T02:39:34;0.67;;;0.30;;
11817;SDS011;5966;52.402;5.322;2023-04-24T02:42:02;0.30;;;0.30;;
11817;SDS011;5966;52.402;5.322;2023-04-24T02:44:30;0.30;;;0.30;;
11817;SDS011;5966;52.402;5.322;2023-04-24T02:46:58;0.97;;;0.20;;
11817;SDS011;5966;52.402;5.322;2023-04-24T02:49:27;1.20;;;0.30;;
11817;SDS011;5966;52.402;5.322;2023-04-24T02:51:55;0.23;;;0.20;;
11817;SDS011;5966;52.402;5.322;2023-04-24T02:54:23;1.43;;;0.53;;
11817;SDS011;5966;52.402;5.322;2023-04-24T02:56:51;2.20;;;0.47;;
11817;SDS011;5966;52.402;5.322;2023-04-24T02:59:19;1.43;;;0.20;;
11817;SDS011;5966;52.402;5.322;2023-04-24T03:01:47;0.53;;;0.20;;
11817;SDS011;5966;52.402;5.322;2023-04-24T03:04:15;0.97;;;0.37;;
11817;SDS011;5966;52.402;5.322;2023-04-24T03:06:48;0.80;;;0.50;;
11817;SDS011;5966;52.402;5.322;2023-04-24T03:09:18;1.67;;;0.87;;
11817;SDS011;5966;52.402;5.322;2023-04-24T03:11:46;0.20;;;0.20;;
11817;SDS011;5966;52.402;5.322;2023-04-24T03:14:14;1.30;;;0.47;;
11817;SDS011;5966;52.402;5.322;2023-04-24T03:16:42;0.87;;;0.47;;
11817;SDS011;5966;52.402;5.322;2023-04-24T03:19:10;1.20;;;0.43;;
11817;SDS011;5966;52.402;5.322;2023-04-24T03:21:38;0.47;;;0.30;;
11817;SDS011;5966;52.402;5.322;2023-04-24T03:24:08;0.20;;;0.20;;
11817;SDS011;5966;52.402;5.322;2023-04-24T03:26:36;0.30;;;0.13;;
11817;SDS011;5966;52.402;5.322;2023-04-24T03:29:04;1.23;;;0.30;;
11817;SDS011;5966;52.402;5.322;2023-04-24T03:31:32;0.40;;;0.40;;
11817;SDS011;5966;52.402;5.322;2023-04-24T03:34:00;0.30;;;0.30;;
11817;SDS011;5966;52.402;5.322;2023-04-24T03:36:28;0.20;;;0.20;;
11817;SDS011;5966;52.402;5.322;2023-04-24T03:38:57;0.30;;;0.30;;
11817;SDS011;5966;52.402;5.322;2023-04-24T03:41:26;0.13;;;0.10;;
11817;SDS011;5966;52.402;5.322;2023-04-24T03:43:55;0.63;;;0.23;;
11817;SDS011;5966;52.402;5.322;2023-04-24T03:46:23;0.87;;;0.30;;
11817;SDS011;5966;52.402;5.322;2023-04-24T03:48:51;1.00;;;0.20;;
11817;SDS011;5966;52.402;5.322;2023-04-24T03:51:19;0.20;;;0.20;;
11817;SDS011;5966;52.402;5.322;2023-04-24T03:53:47;0.43;;;0.30;;
11817;SDS011;5966;52.402;5.322;2023-04-24T03:56:15;0.20;;;0.20;;
11817;SDS011;5966;52.402;5.322;2023-04-24T03:58:45;0.20;;;0.20;;
11817;SDS011;5966;52.402;5.322;2023-04-24T04:01:13;0.20;;;0.20;;
11817;SDS011;5966;52.402;5.322;2023-04-24T04:03:42;0.47;;;0.30;;
11817;SDS011;5966;52.402;5.322;2023-04-24T04:06:10;0.10;;;0.10;;
11817;SDS011;5966;52.402;5.322;2023-04-24T04:08:39;0.30;;;0.30;;
11817;SDS011;5966;52.402;5.322;2023-04-24T04:11:07;0.80;;;0.20;;
11817;SDS011;5966;52.402;5.322;2023-04-24T04:13:35;0.47;;;0.20;;
11817;SDS011;5966;52.402;5.322;2023-04-24T04:16:04;0.97;;;0.20;;
11817;SDS011;5966;52.402;5.322;2023-04-24T04:18:33;0.20;;;0.20;;
11817;SDS011;5966;52.402;5.322;2023-04-24T04:21:01;0.20;;;0.10;;
11817;SDS011;5966;52.402;5.322;2023-04-24T04:23:29;1.67;;;0.30;;
11817;SDS011;5966;52.402;5.322;2023-04-24T04:25:58;0.80;;;0.40;;
11817;SDS011;5966;52.402;5.322;2023-04-24T04:28:26;0.50;;;0.20;;
11817;SDS011;5966;52.402;5.322;2023-04-24T04:30:54;1.43;;;0.30;;
11817;SDS011;5966;52.402;5.322;2023-04-24T04:33:24;0.40;;;0.23;;
11817;SDS011;5966;52.402;5.322;2023-04-24T04:35:53;0.27;;;0.23;;
11817;SDS011;5966;52.402;5.322;2023-04-24T04:38:22;0.93;;;0.40;;
11817;SDS011;5966;52.402;5.322;2023-04-24T04:40:52;0.40;;;0.30;;
11817;SDS011;5966;52.402;5.322;2023-04-24T04:43:23;0.33;;;0.20;;
11817;SDS011;5966;52.402;5.322;2023-04-24T04:45:51;0.20;;;0.20;;
11817;SDS011;5966;52.402;5.322;2023-04-24T04:48:20;0.53;;;0.20;;
11817;SDS011;5966;52.402;5.322;2023-04-24T04:50:50;1.03;;;0.50;;
11817;SDS011;5966;52.402;5.322;2023-04-24T04:53:18;0.20;;;0.10;;
11817;SDS011;5966;52.402;5.322;2023-04-24T04:55:46;0.40;;;0.40;;
11817;SDS011;5966;52.402;5.322;2023-04-24T04:58:14;1.87;;;0.40;;
11817;SDS011;5966;52.402;5.322;2023-04-24T05:00:42;0.40;;;0.20;;
11817;SDS011;5966;52.402;5.322;2023-04-24T05:03:10;0.70;;;0.20;;
11817;SDS011;5966;52.402;5.322;2023-04-24T05:05:44;0.47;;;0.30;;
11817;SDS011;5966;52.402;5.322;2023-04-24T05:08:13;0.40;;;0.27;;
11817;SDS011;5966;52.402;5.322;2023-04-24T05:10:52;1.07;;;0.47;;
11817;SDS011;5966;52.402;5.322;2023-04-24T05:13:20;1.37;;;0.27;;
11817;SDS011;5966;52.402;5.322;2023-04-24T05:16:04;0.67;;;0.33;;
11817;SDS011;5966;52.402;5.322;2023-04-24T05:18:32;0.47;;;0.30;;
11817;SDS011;5966;52.402;5.322;2023-04-24T05:21:00;0.63;;;0.53;;
11817;SDS011;5966;52.402;5.322;2023-04-24T05:23:29;0.60;;;0.30;;
11817;SDS011;5966;52.402;5.322;2023-04-24T05:25:57;1.07;;;0.43;;
11817;SDS011;5966;52.402;5.322;2023-04-24T05:28:25;3.33;;;0.70;;
11817;SDS011;5966;52.402;5.322;2023-04-24T05:30:54;1.90;;;0.90;;
11817;SDS011;5966;52.402;5.322;2023-04-24T05:33:23;0.60;;;0.60;;
11817;SDS011;5966;52.402;5.322;2023-04-24T05:35:51;0.37;;;0.37;;
11817;SDS011;5966;52.402;5.322;2023-04-24T05:38:19;1.13;;;0.77;;
11817;SDS011;5966;52.402;5.322;2023-04-24T05:40:48;0.60;;;0.60;;
11817;SDS011;5966;52.402;5.322;2023-04-24T05:43:16;1.27;;;0.70;;
11817;SDS011;5966;52.402;5.322;2023-04-24T05:45:44;0.80;;;0.60;;
11817;SDS011;5966;52.402;5.322;2023-04-24T05:48:12;2.10;;;0.90;;
11817;SDS011;5966;52.402;5.322;2023-04-24T05:50:40;1.10;;;0.50;;
11817;SDS011;5966;52.402;5.322;2023-04-24T05:53:08;0.90;;;0.60;;
11817;SDS011;5966;52.402;5.322;2023-04-24T05:55:36;0.53;;;0.33;;
11817;SDS011;5966;52.402;5.322;2023-04-24T05:58:06;2.37;;;0.73;;
11817;SDS011;5966;52.402;5.322;2023-04-24T06:00:34;0.77;;;0.63;;
11817;SDS011;5966;52.402;5.322;2023-04-24T06:03:02;0.87;;;0.63;;
11817;SDS011;5966;52.402;5.322;2023-04-24T06:05:30;2.97;;;2.33;;
11817;SDS011;5966;52.402;5.322;2023-04-24T06:08:00;6.67;;;4.73;;
11817;SDS011;5966;52.402;5.322;2023-04-24T06:10:28;6.87;;;5.40;;
11817;SDS011;5966;52.402;5.322;2023-04-24T06:12:56;11.67;;;7.53;;
11817;SDS011;5966;52.402;5.322;2023-04-24T06:15:29;8.40;;;7.03;;
11817;SDS011;5966;52.402;5.322;2023-04-24T06:17:57;10.27;;;7.23;;
11817;SDS011;5966;52.402;5.322;2023-04-24T06:20:26;7.90;;;6.50;;
11817;SDS011;5966;52.402;5.322;2023-04-24T06:22:54;9.10;;;6.83;;
11817;SDS011;5966;52.402;5.322;2023-04-24T06:25:24;10.00;;;6.97;;
11817;SDS011;5966;52.402;5.322;2023-04-24T06:27:52;10.10;;;6.40;;
11817;SDS011;5966;52.402;5.322;2023-04-24T06:30:21;8.07;;;5.93;;
11817;SDS011;5966;52.402;5.322;2023-04-24T06:32:51;11.77;;;6.27;;
11817;SDS011;5966;52.402;5.322;2023-04-24T06:35:21;8.17;;;5.70;;
11817;SDS011;5966;52.402;5.322;2023-04-24T06:37:49;8.43;;;5.97;;
11817;SDS011;5966;52.402;5.322;2023-04-24T06:40:17;7.27;;;4.83;;
11817;SDS011;5966;52.402;5.322;2023-04-24T06:42:45;12.00;;;5.67;;
11817;SDS011;5966;52.402;5.322;2023-04-24T06:45:13;13.23;;;6.50;;
11817;SDS011;5966;52.402;5.322;2023-04-24T06:47:41;8.07;;;6.10;;
11817;SDS011;5966;52.402;5.322;2023-04-24T06:50:11;7.20;;;5.40;;
11817;SDS011;5966;52.402;5.322;2023-04-24T06:52:39;8.33;;;5.40;;
11817;SDS011;5966;52.402;5.322;2023-04-24T06:55:08;8.37;;;5.17;;
11817;SDS011;5966;52.402;5.322;2023-04-24T06:57:37;7.47;;;4.93;;
11817;SDS011;5966;52.402;5.322;2023-04-24T07:00:05;11.17;;;5.30;;
11817;SDS011;5966;52.402;5.322;2023-04-24T07:02:35;8.83;;;4.90;;
11817;SDS011;5966;52.402;5.322;2023-04-24T07:05:04;8.03;;;4.60;;
11817;SDS011;5966;52.402;5.322;2023-04-24T07:07:34;6.33;;;4.17;;
11817;SDS011;5966;52.402;5.322;2023-04-24T07:10:04;8.77;;;4.90;;
11817;SDS011;5966;52.402;5.322;2023-04-24T07:12:33;8.13;;;4.53;;
11817;SDS011;5966;52.402;5.322;2023-04-24T07:15:01;7.50;;;4.50;;
11817;SDS011;5966;52.402;5.322;2023-04-24T07:17:30;9.83;;;4.73;;
11817;SDS011;5966;52.402;5.322;2023-04-24T07:19:58;8.27;;;4.47;;
11817;SDS011;5966;52.402;5.322;2023-04-24T07:22:26;11.23;;;5.23;;
11817;SDS011;5966;52.402;5.322;2023-04-24T07:24:58;11.63;;;4.83;;
11817;SDS011;5966;52.402;5.322;2023-04-24T07:27:26;6.63;;;4.43;;
11817;SDS011;5966;52.402;5.322;2023-04-24T07:29:56;8.50;;;4.50;;
11817;SDS011;5966;52.402;5.322;2023-04-24T07:32:24;7.73;;;5.00;;
11817;SDS011;5966;52.402;5.322;2023-04-24T07:34:52;8.00;;;4.40;;
11817;SDS011;5966;52.402;5.322;2023-04-24T07:37:20;7.23;;;4.80;;
11817;SDS011;5966;52.402;5.322;2023-04-24T07:39:48;5.13;;;3.80;;
11817;SDS011;5966;52.402;5.322;2023-04-24T07:42:18;6.37;;;4.43;;
11817;SDS011;5966;52.402;5.322;2023-04-24T07:44:46;11.00;;;4.40;;
11817;SDS011;5966;52.402;5.322;2023-04-24T07:47:14;6.20;;;3.90;;
11817;SDS011;5966;52.402;5.322;2023-04-24T07:49:42;10.83;;;4.83;;
11817;SDS011;5966;52.402;5.322;2023-04-24T07:52:11;7.17;;;4.33;;
11817;SDS011;5966;52.402;5.322;2023-04-24T07:54:39;9.17;;;4.40;;
11817;SDS011;5966;52.402;5.322;2023-04-24T07:57:07;7.97;;;4.43;;
11817;SDS011;5966;52.402;5.322;2023-04-24T07:59:37;9.37;;;4.37;;
11817;SDS011;5966;52.402;5.322;2023-04-24T08:02:05;7.97;;;4.40;;
11817;SDS011;5966;52.402;5.322;2023-04-24T08:04:33;11.57;;;4.30;;
11817;SDS011;5966;52.402;5.322;2023-04-24T08:07:01;10.77;;;4.50;;
11817;SDS011;5966;52.402;5.322;2023-04-24T08:09:29;7.27;;;4.17;;
11817;SDS011;5966;52.402;5.322;2023-04-24T08:11:57;9.30;;;4.20;;
11817;SDS011;5966;52.402;5.322;2023-04-24T08:14:26;8.10;;;4.37;;
11817;SDS011;5966;52.402;5.322;2023-04-24T08:16:55;11.47;;;4.27;;
11817;SDS011;5966;52.402;5.322;2023-04-24T08:19:23;9.73;;;3.10;;
11817;SDS011;5966;52.402;5.322;2023-04-24T08:21:51;9.53;;;3.40;;
11817;SDS011;5966;52.402;5.322;2023-04-24T08:24:20;11.83;;;2.80;;
11817;SDS011;5966;52.402;5.322;2023-04-24T08:26:50;7.40;;;2.87;;
11817;SDS011;5966;52.402;5.322;2023-04-24T08:29:20;13.73;;;2.97;;
11817;SDS011;5966;52.402;5.322;2023-04-24T08:31:48;12.10;;;3.03;;
11817;SDS011;5966;52.402;5.322;2023-04-24T08:34:17;9.77;;;2.50;;
11817;SDS011;5966;52.402;5.322;2023-04-24T08:36:46;5.93;;;2.17;;
11817;SDS011;5966;52.402;5.322;2023-04-24T08:39:14;10.87;;;3.10;;
11817;SDS011;5966;52.402;5.322;2023-04-24T08:41:42;14.33;;;3.40;;
11817;SDS011;5966;52.402;5.322;2023-04-24T08:44:12;10.53;;;2.67;;
11817;SDS011;5966;52.402;5.322;2023-04-24T08:46:42;8.90;;;2.70;;
11817;SDS011;5966;52.402;5.322;2023-04-24T08:49:12;7.77;;;2.50;;
11817;SDS011;5966;52.402;5.322;2023-04-24T08:51:43;9.00;;;3.10;;
11817;SDS011;5966;52.402;5.322;2023-04-24T08:54:13;13.40;;;3.10;;
11817;SDS011;5966;52.402;5.322;2023-04-24T08:56:41;7.93;;;2.30;;
11817;SDS011;5966;52.402;5.322;2023-04-24T08:59:12;10.87;;;2.77;;
11817;SDS011;5966;52.402;5.322;2023-04-24T09:01:40;7.07;;;2.60;;
11817;SDS011;5966;52.402;5.322;2023-04-24T09:04:09;6.83;;;2.20;;
11817;SDS011;5966;52.402;5.322;2023-04-24T09:06:39;9.30;;;2.93;;
11817;SDS011;5966;52.402;5.322;2023-04-24T09:09:08;9.87;;;2.57;;
11817;SDS011;5966;52.402;5.322;2023-04-24T09:11:38;11.57;;;2.90;;
11817;SDS011;5966;52.402;5.322;2023-04-24T09:14:06;9.83;;;2.30;;
11817;SDS011;5966;52.402;5.322;2023-04-24T09:16:36;8.57;;;2.60;;
11817;SDS011;5966;52.402;5.322;2023-04-24T09:19:04;10.97;;;2.00;;
11817;SDS011;5966;52.402;5.322;2023-04-24T09:21:32;8.60;;;2.30;;
11817;SDS011;5966;52.402;5.322;2023-04-24T09:24:02;5.90;;;2.00;;
11817;SDS011;5966;52.402;5.322;2023-04-24T09:26:35;7.60;;;1.93;;
11817;SDS011;5966;52.402;5.322;2023-04-24T09:29:03;5.80;;;1.97;;
11817;SDS011;5966;52.402;5.322;2023-04-24T09:31:32;7.67;;;2.40;;
11817;SDS011;5966;52.402;5.322;2023-04-24T09:34:00;13.87;;;2.70;;
11817;SDS011;5966;52.402;5.322;2023-04-24T09:36:34;4.90;;;1.70;;
11817;SDS011;5966;52.402;5.322;2023-04-24T09:39:04;7.50;;;2.37;;
11817;SDS011;5966;52.402;5.322;2023-04-24T09:41:35;9.40;;;2.03;;
11817;SDS011;5966;52.402;5.322;2023-04-24T09:44:12;5.20;;;2.03;;
11817;SDS011;5966;52.402;5.322;2023-04-24T09:46:41;5.17;;;2.00;;
11817;SDS011;5966;52.402;5.322;2023-04-24T09:49:12;6.77;;;1.90;;
11817;SDS011;5966;52.402;5.322;2023-04-24T09:51:42;7.13;;;1.83;;
11817;SDS011;5966;52.402;5.322;2023-04-24T09:54:13;6.83;;;2.30;;
11817;SDS011;5966;52.402;5.322;2023-04-24T09:56:44;5.90;;;1.90;;
11817;SDS011;5966;52.402;5.322;2023-04-24T09:59:13;7.57;;;1.90;;
11817;SDS011;5966;52.402;5.322;2023-04-24T10:01:42;6.77;;;2.00;;
11817;SDS011;5966;52.402;5.322;2023-04-24T16:09:41;9.47;;;2.50;;
11817;SDS011;5966;52.402;5.322;2023-04-24T16:24:30;6.50;;;2.20;;
11817;SDS011;5966;52.402;5.322;2023-04-24T16:26:58;8.33;;;2.30;;
11817;SDS011;5966;52.402;5.322;2023-04-24T16:29:27;8.57;;;2.47;;
11817;SDS011;5966;52.402;5.322;2023-04-24T16:31:55;9.63;;;2.73;;
11817;SDS011;5966;52.402;5.322;2023-04-24T16:34:23;5.63;;;2.13;;
11817;SDS011;5966;52.402;5.322;2023-04-24T16:36:51;7.43;;;2.63;;
11817;SDS011;5966;52.402;5.322;2023-04-24T16:39:18;8.23;;;2.27;;
11817;SDS011;5966;52.402;5.322;2023-04-24T16:41:48;9.37;;;2.53;;
11817;SDS011;5966;52.402;5.322;2023-04-24T16:44:18;10.27;;;2.60;;
11817;SDS011;5966;52.402;5.322;2023-04-24T16:46:45;7.77;;;2.50;;
11817;SDS011;5966;52.402;5.322;2023-04-24T16:49:13;10.33;;;2.63;;
11817;SDS011;5966;52.402;5.322;2023-04-24T16:51:41;12.20;;;3.47;;
11817;SDS011;5966;52.402;5.322;2023-04-24T16:54:09;12.00;;;2.90;;
11817;SDS011;5966;52.402;5.322;2023-04-24T16:56:37;10.30;;;3.23;;
11817;SDS011;5966;52.402;5.322;2023-04-24T16:59:06;9.73;;;2.97;;
11817;SDS011;5966;52.402;5.322;2023-04-24T17:01:34;9.40;;;3.07;;
11817;SDS011;5966;52.402;5.322;2023-04-24T17:04:02;7.80;;;2.37;;
11817;SDS011;5966;52.402;5.322;2023-04-24T17:06:30;9.53;;;2.40;;
11817;SDS011;5966;52.402;5.322;2023-04-24T17:08:58;13.33;;;3.33;;
11817;SDS011;5966;52.402;5.322;2023-04-24T17:11:27;12.30;;;2.93;;
11817;SDS011;5966;52.402;5.322;2023-04-24T17:13:56;9.63;;;2.57;;
11817;SDS011;5966;52.402;5.322;2023-04-24T17:16:26;6.10;;;2.53;;
11817;SDS011;5966;52.402;5.322;2023-04-24T17:18:55;6.43;;;2.53;;
11817;SDS011;5966;52.402;5.322;2023-04-24T17:21:23;8.70;;;2.47;;
11817;SDS011;5966;52.402;5.322;2023-04-24T17:23:53;10.23;;;2.50;;
11817;SDS011;5966;52.402;5.322;2023-04-24T17:26:21;9.27;;;2.53;;
11817;SDS011;5966;52.402;5.322;2023-04-24T17:28:48;10.27;;;2.43;;
11817;SDS011;5966;52.402;5.322;2023-04-24T17:31:19;8.23;;;2.60;;
11817;SDS011;5966;52.402;5.322;2023-04-24T17:33:49;5.87;;;2.33;;
11817;SDS011;5966;52.402;5.322;2023-04-24T17:36:17;6.60;;;2.30;;
11817;SDS011;5966;52.402;5.322;2023-04-24T17:38:45;8.93;;;3.27;;
11817;SDS011;5966;52.402;5.322;2023-04-24T17:41:14;8.43;;;2.73;;
11817;SDS011;5966;52.402;5.322;2023-04-24T17:43:42;9.57;;;2.60;;
11817;SDS011;5966;52.402;5.322;2023-04-24T17:46:11;9.20;;;2.47;;
11817;SDS011;5966;52.402;5.322;2023-04-24T17:48:39;8.40;;;2.47;;
11817;SDS011;5966;52.402;5.322;2023-04-24T17:51:08;7.80;;;2.03;;
11817;SDS011;5966;52.402;5.322;2023-04-24T17:53:36;9.53;;;2.90;;
11817;SDS011;5966;52.402;5.322;2023-04-24T17:56:04;7.47;;;2.40;;
11817;SDS011;5966;52.402;5.322;2023-04-24T17:58:33;14.07;;;2.83;;
11817;SDS011;5966;52.402;5.322;2023-04-24T18:01:01;5.73;;;2.27;;
11817;SDS011;5966;52.402;5.322;2023-04-24T18:03:29;10.80;;;2.23;;
11817;SDS011;5966;52.402;5.322;2023-04-24T18:05:57;8.97;;;2.30;;
11817;SDS011;5966;52.402;5.322;2023-04-24T18:08:27;8.00;;;2.60;;
11817;SDS011;5966;52.402;5.322;2023-04-24T18:10:55;6.83;;;2.27;;
11817;SDS011;5966;52.402;5.322;2023-04-24T18:13:24;6.60;;;2.10;;
11817;SDS011;5966;52.402;5.322;2023-04-24T18:15:52;6.97;;;1.83;;
11817;SDS011;5966;52.402;5.322;2023-04-24T18:18:20;8.40;;;2.20;;
11817;SDS011;5966;52.402;5.322;2023-04-24T18:20:48;6.30;;;2.17;;
11817;SDS011;5966;52.402;5.322;2023-04-24T18:23:16;10.40;;;2.30;;
11817;SDS011;5966;52.402;5.322;2023-04-24T18:25:45;5.27;;;1.97;;
11817;SDS011;5966;52.402;5.322;2023-04-24T18:28:13;7.13;;;2.50;;
11817;SDS011;5966;52.402;5.322;2023-04-24T18:30:41;9.33;;;2.37;;
11817;SDS011;5966;52.402;5.322;2023-04-24T18:33:09;7.27;;;2.13;;
11817;SDS011;5966;52.402;5.322;2023-04-24T18:35:37;4.00;;;1.70;;
11817;SDS011;5966;52.402;5.322;2023-04-24T18:38:05;7.23;;;1.90;;
11817;SDS011;5966;52.402;5.322;2023-04-24T18:40:34;4.50;;;1.67;;
11817;SDS011;5966;52.402;5.322;2023-04-24T18:43:04;7.23;;;1.70;;
11817;SDS011;5966;52.402;5.322;2023-04-24T18:45:32;4.17;;;1.50;;
11817;SDS011;5966;52.402;5.322;2023-04-24T18:48:00;6.13;;;1.80;;
11817;SDS011;5966;52.402;5.322;2023-04-24T18:50:28;4.17;;;1.60;;
11817;SDS011;5966;52.402;5.322;2023-04-24T18:52:57;5.57;;;1.80;;
11817;SDS011;5966;52.402;5.322;2023-04-24T18:55:25;4.67;;;1.53;;
11817;SDS011;5966;52.402;5.322;2023-04-24T18:57:53;4.30;;;1.57;;
11817;SDS011;5966;52.402;5.322;2023-04-24T19:00:22;3.97;;;1.40;;
11817;SDS011;5966;52.402;5.322;2023-04-24T19:02:50;3.13;;;1.60;;
11817;SDS011;5966;52.402;5.322;2023-04-24T19:05:18;3.83;;;1.57;;
11817;SDS011;5966;52.402;5.322;2023-04-24T19:07:46;4.47;;;2.03;;
11817;SDS011;5966;52.402;5.322;2023-04-24T19:10:15;6.50;;;1.70;;
11817;SDS011;5966;52.402;5.322;2023-04-24T19:12:43;4.70;;;1.60;;
11817;SDS011;5966;52.402;5.322;2023-04-24T19:15:12;8.17;;;2.03;;
11817;SDS011;5966;52.402;5.322;2023-04-24T19:17:41;5.73;;;1.50;;
11817;SDS011;5966;52.402;5.322;2023-04-24T19:20:09;5.17;;;1.40;;
11817;SDS011;5966;52.402;5.322;2023-04-24T19:22:38;6.97;;;1.80;;
11817;SDS011;5966;52.402;5.322;2023-04-24T19:25:06;6.30;;;1.70;;
11817;SDS011;5966;52.402;5.322;2023-04-24T19:27:34;7.37;;;1.97;;
11817;SDS011;5966;52.402;5.322;2023-04-24T19:30:03;6.93;;;2.03;;
11817;SDS011;5966;52.402;5.322;2023-04-24T19:32:32;4.57;;;1.47;;
11817;SDS011;5966;52.402;5.322;2023-04-24T19:35:01;2.27;;;1.30;;
11817;SDS011;5966;52.402;5.322;2023-04-24T19:37:29;8.43;;;1.50;;
11817;SDS011;5966;52.402;5.322;2023-04-24T19:39:59;5.73;;;1.13;;
11817;SDS011;5966;52.402;5.322;2023-04-24T19:42:28;4.57;;;1.20;;
11817;SDS011;5966;52.402;5.322;2023-04-24T19:45:09;4.70;;;1.33;;
11817;SDS011;5966;52.402;5.322;2023-04-24T19:47:38;4.40;;;1.30;;
11817;SDS011;5966;52.402;5.322;2023-04-24T19:50:08;3.03;;;1.53;;
11817;SDS011;5966;52.402;5.322;2023-04-24T19:52:36;6.10;;;1.67;;
11817;SDS011;5966;52.402;5.322;2023-04-24T19:55:04;2.33;;;1.03;;
11817;SDS011;5966;52.402;5.322;2023-04-24T19:57:33;7.07;;;1.67;;
11817;SDS011;5966;52.402;5.322;2023-04-24T20:00:01;5.57;;;1.77;;
11817;SDS011;5966;52.402;5.322;2023-04-24T20:02:30;7.23;;;3.60;;
11817;SDS011;5966;52.402;5.322;2023-04-24T20:04:58;8.20;;;2.97;;
11817;SDS011;5966;52.402;5.322;2023-04-24T20:07:28;6.83;;;2.00;;
11817;SDS011;5966;52.402;5.322;2023-04-24T20:09:56;5.70;;;1.87;;
11817;SDS011;5966;52.402;5.322;2023-04-24T20:12:24;6.03;;;1.60;;
11817;SDS011;5966;52.402;5.322;2023-04-24T20:14:52;4.63;;;1.87;;
11817;SDS011;5966;52.402;5.322;2023-04-24T20:17:20;6.83;;;1.90;;
11817;SDS011;5966;52.402;5.322;2023-04-24T20:19:48;5.20;;;1.87;;
11817;SDS011;5966;52.402;5.322;2023-04-24T20:22:16;6.13;;;2.03;;
11817;SDS011;5966;52.402;5.322;2023-04-24T20:24:45;5.97;;;1.80;;
11817;SDS011;5966;52.402;5.322;2023-04-24T20:27:13;6.27;;;1.80;;
11817;SDS011;5966;52.402;5.322;2023-04-24T20:29:41;8.47;;;2.13;;
11817;SDS011;5966;52.402;5.322;2023-04-24T20:32:09;6.60;;;2.17;;
11817;SDS011;5966;52.402;5.322;2023-04-24T20:34:37;6.70;;;1.40;;
11817;SDS011;5966;52.402;5.322;2023-04-24T20:37:05;4.77;;;1.93;;
11817;SDS011;5966;52.402;5.322;2023-04-24T20:39:33;7.07;;;2.07;;
11817;SDS011;5966;52.402;5.322;2023-04-24T20:42:03;5.50;;;1.90;;
11817;SDS011;5966;52.402;5.322;2023-04-24T20:44:32;7.70;;;1.87;;
11817;SDS011;5966;52.402;5.322;2023-04-24T20:47:00;10.30;;;2.47;;
11817;SDS011;5966;52.402;5.322;2023-04-24T20:49:28;6.37;;;2.10;;
11817;SDS011;5966;52.402;5.322;2023-04-24T20:51:56;9.77;;;2.40;;
11817;SDS011;5966;52.402;5.322;2023-04-24T20:54:24;4.73;;;2.10;;
11817;SDS011;5966;52.402;5.322;2023-04-24T20:56:52;7.23;;;2.27;;
11817;SDS011;5966;52.402;5.322;2023-04-24T20:59:22;7.97;;;2.43;;
11817;SDS011;5966;52.402;5.322;2023-04-24T21:01:50;6.47;;;2.20;;
11817;SDS011;5966;52.402;5.322;2023-04-24T21:04:17;5.87;;;1.90;;
11817;SDS011;5966;52.402;5.322;2023-04-24T21:06:46;8.53;;;2.37;;
11817;SDS011;5966;52.402;5.322;2023-04-24T21:09:13;4.93;;;1.97;;
11817;SDS011;5966;52.402;5.322;2023-04-24T21:11:41;8.47;;;2.57;;
11817;SDS011;5966;52.402;5.322;2023-04-24T21:14:09;6.37;;;2.17;;
11817;SDS011;5966;52.402;5.322;2023-04-24T21:16:39;9.37;;;2.47;;
11817;SDS011;5966;52.402;5.322;2023-04-24T21:19:07;10.93;;;2.90;;
11817;SDS011;5966;52.402;5.322;2023-04-24T21:21:35;11.57;;;2.40;;
11817;SDS011;5966;52.402;5.322;2023-04-24T21:24:03;9.47;;;2.70;;
11817;SDS011;5966;52.402;5.322;2023-04-24T21:26:31;12.47;;;3.30;;